createdAt,value
2023-03-15T00:00:55.804Z,3.03
2023-03-15T00:03:24.420Z,1.70
2023-03-15T00:05:54.615Z,5.15
2023-03-15T00:08:24.082Z,5.68
2023-03-15T00:10:51.084Z,3.42
2023-03-15T00:13:18.353Z,7.68
2023-03-15T00:15:50.629Z,3.80
2023-03-15T00:18:19.536Z,2.97
2023-03-15T00:20:48.205Z,5.22
2023-03-15T00:23:16.317Z,3.53
2023-03-15T00:25:51.008Z,6.20
2023-03-15T00:28:18.179Z,5.75
2023-03-15T00:30:45.550Z,4.53
2023-03-15T00:33:13.826Z,5.80
2023-03-15T00:35:45.566Z,9.77
2023-03-15T00:38:14.216Z,6.22
2023-03-15T00:40:41.450Z,9.55
2023-03-15T00:43:08.255Z,5.65
2023-03-15T00:45:35.056Z,6.10
2023-03-15T00:48:01.853Z,5.88
2023-03-15T00:50:28.637Z,8.25
2023-03-15T00:52:55.390Z,12.38
2023-03-15T00:55:22.425Z,6.75
2023-03-15T00:57:49.474Z,8.43
2023-03-15T01:00:24.439Z,11.20
2023-03-15T01:02:52.851Z,6.43
2023-03-15T01:05:20.215Z,4.65
2023-03-15T01:07:47.564Z,9.50
2023-03-15T01:10:16.649Z,9.63
2023-03-15T01:12:44.131Z,7.82
2023-03-15T01:15:14.695Z,8.13
2023-03-15T01:17:42.489Z,6.57
2023-03-15T01:20:12.975Z,10.15
2023-03-15T01:22:40.132Z,8.48
2023-03-15T01:25:09.158Z,8.98
2023-03-15T01:27:35.976Z,8.55
2023-03-15T01:30:02.967Z,15.05
2023-03-15T01:32:29.873Z,7.63
2023-03-15T01:34:57.056Z,7.88
2023-03-15T01:37:24.574Z,8.35
2023-03-15T01:39:51.528Z,8.88
2023-03-15T01:42:18.574Z,8.45
2023-03-15T01:44:59.955Z,8.05
2023-03-15T01:47:27.073Z,9.93
2023-03-15T01:50:09.576Z,7.57
2023-03-15T01:52:41.443Z,7.45
2023-03-15T01:55:15.653Z,5.55
2023-03-15T01:57:50.025Z,9.13
2023-03-15T02:00:21.793Z,10.18
2023-03-15T02:02:59.452Z,10.90
2023-03-15T02:05:32.642Z,6.05
2023-03-15T02:07:59.955Z,10.27
2023-03-15T02:10:45.419Z,8.25
2023-03-15T02:13:18.506Z,8.95
2023-03-15T02:15:47.073Z,8.82
2023-03-15T02:18:14.798Z,7.70
2023-03-15T02:21:14.100Z,9.30
2023-03-15T02:23:41.327Z,7.95
2023-03-15T02:26:29.176Z,6.22
2023-03-15T02:28:56.188Z,5.88
2023-03-15T02:31:23.095Z,8.93
2023-03-15T02:33:52.629Z,10.20
2023-03-15T02:36:28.144Z,6.95
2023-03-15T02:38:56.492Z,7.72
2023-03-15T02:41:34.529Z,6.68
2023-03-15T02:44:19.926Z,7.70
2023-03-15T02:46:50.140Z,5.97
2023-03-15T02:49:18.386Z,9.93
2023-03-15T02:51:45.196Z,8.32
2023-03-15T02:54:12.044Z,11.48
2023-03-15T02:56:38.845Z,8.25
2023-03-15T02:59:05.733Z,5.43
2023-03-15T03:01:32.640Z,11.80
2023-03-15T03:03:59.471Z,8.93
2023-03-15T03:06:26.251Z,6.15
2023-03-15T03:08:53.027Z,6.45
2023-03-15T03:11:19.937Z,5.93
2023-03-15T03:13:46.759Z,11.98
2023-03-15T03:16:13.658Z,6.93
2023-03-15T03:18:42.130Z,5.38
2023-03-15T03:21:09.142Z,7.20
2023-03-15T03:23:36.699Z,4.82
2023-03-15T03:26:16.654Z,6.10
2023-03-15T03:28:46.391Z,14.93
2023-03-15T03:31:23.736Z,9.35
2023-03-15T03:33:51.137Z,5.97
2023-03-15T03:36:18.155Z,5.75
2023-03-15T03:38:47.081Z,10.07
2023-03-15T03:41:15.167Z,8.23
2023-03-15T03:43:42.060Z,6.95
2023-03-15T03:46:08.925Z,4.55
2023-03-15T03:48:36.011Z,5.75
2023-03-15T03:51:02.860Z,7.13
2023-03-15T03:53:29.656Z,9.85
2023-03-15T03:55:56.414Z,8.98
2023-03-15T03:58:23.387Z,6.70
2023-03-15T04:00:54.270Z,6.47
2023-03-15T04:03:27.082Z,7.18
2023-03-15T04:05:58.335Z,7.15
2023-03-15T04:08:26.674Z,9.85
2023-03-15T04:10:57.897Z,11.02
2023-03-15T04:13:25.487Z,8.63
2023-03-15T04:15:57.672Z,5.45
2023-03-15T04:18:24.954Z,12.13
2023-03-15T04:20:54.568Z,5.13
2023-03-15T04:23:24.974Z,7.60
2023-03-15T04:25:55.199Z,6.30
2023-03-15T04:28:22.791Z,7.20
2023-03-15T04:30:51.071Z,9.82
2023-03-15T04:33:17.901Z,17.52
2023-03-15T04:35:44.750Z,9.73
2023-03-15T04:38:11.757Z,9.15
2023-03-15T04:40:38.679Z,7.88
2023-03-15T04:43:05.998Z,6.45
2023-03-15T04:45:33.300Z,10.80
2023-03-15T04:48:01.549Z,8.23
2023-03-15T04:50:29.454Z,10.20
2023-03-15T04:52:59.281Z,8.43
2023-03-15T04:55:26.034Z,12.50
2023-03-15T04:57:52.905Z,9.10
2023-03-15T05:00:19.880Z,6.70
2023-03-15T05:02:52.105Z,9.30
2023-03-15T05:05:18.962Z,9.43
2023-03-15T05:07:45.785Z,12.63
2023-03-15T05:10:12.958Z,8.15
2023-03-15T05:12:39.761Z,12.35
2023-03-15T05:15:07.570Z,7.75
2023-03-15T05:17:34.385Z,8.05
2023-03-15T05:20:01.799Z,11.68
2023-03-15T05:22:28.688Z,10.13
2023-03-15T05:24:55.480Z,9.65
2023-03-15T05:27:22.262Z,10.13
2023-03-15T05:29:50.857Z,5.80
2023-03-15T05:32:17.643Z,7.72
2023-03-15T05:34:44.435Z,10.02
2023-03-15T05:37:12.309Z,10.27
2023-03-15T05:39:39.153Z,9.02
2023-03-15T05:42:06.515Z,10.45
2023-03-15T05:44:33.284Z,10.77
2023-03-15T05:47:00.279Z,7.35
2023-03-15T05:49:27.301Z,7.90
2023-03-15T05:51:54.051Z,19.73
2023-03-15T05:54:20.875Z,15.07
2023-03-15T05:56:47.753Z,11.52
2023-03-15T05:59:14.514Z,11.13
2023-03-15T06:01:41.324Z,9.77
2023-03-15T06:04:08.159Z,17.48
2023-03-15T06:06:35.031Z,15.82
2023-03-15T06:09:01.913Z,12.82
2023-03-15T06:11:28.747Z,10.13
2023-03-15T06:13:55.482Z,12.90
2023-03-15T06:16:22.321Z,9.95
2023-03-15T06:18:49.129Z,13.35
2023-03-15T06:21:15.878Z,15.10
2023-03-15T06:23:43.419Z,13.50
2023-03-15T06:26:10.303Z,11.88
2023-03-15T06:28:37.106Z,6.05
2023-03-15T06:31:12.692Z,9.48
2023-03-15T06:33:39.889Z,8.73
2023-03-15T06:36:07.458Z,10.63
2023-03-15T06:38:34.366Z,12.43
2023-03-15T06:41:01.229Z,12.50
2023-03-15T06:43:28.595Z,9.05
2023-03-15T06:45:56.774Z,15.45
2023-03-15T06:48:23.614Z,11.63
2023-03-15T06:50:50.413Z,12.90
2023-03-15T06:53:17.794Z,10.18
2023-03-15T06:55:45.418Z,14.07
2023-03-15T06:58:13.811Z,14.40
2023-03-15T07:00:41.010Z,9.15
2023-03-15T07:03:07.955Z,12.98
2023-03-15T07:05:34.843Z,10.30
2023-03-15T07:08:01.622Z,12.02
2023-03-15T07:10:28.505Z,10.65
2023-03-15T07:12:55.359Z,9.23
2023-03-15T07:15:22.132Z,18.20
2023-03-15T07:17:48.981Z,13.32
2023-03-15T07:22:54.300Z,10.85
2023-03-15T07:25:24.247Z,13.80
2023-03-15T07:27:52.554Z,13.13
2023-03-15T07:30:21.151Z,9.45
2023-03-15T07:32:48.760Z,12.35
2023-03-15T07:35:18.748Z,12.98
2023-03-15T07:37:47.911Z,10.20
2023-03-15T07:40:16.455Z,9.10
2023-03-15T07:42:43.999Z,17.73
2023-03-15T07:45:12.422Z,9.82
2023-03-15T07:47:39.415Z,11.88
2023-03-15T07:50:07.762Z,12.55
2023-03-15T07:52:35.176Z,16.77
2023-03-15T07:55:02.673Z,15.30
2023-03-15T07:57:29.816Z,14.25
2023-03-15T07:59:58.572Z,10.23
2023-03-15T08:02:30.199Z,9.45
2023-03-15T08:04:59.628Z,12.57
2023-03-15T08:07:26.553Z,10.35
2023-03-15T08:09:53.405Z,8.85
2023-03-15T08:12:20.209Z,12.35
2023-03-15T08:14:47.538Z,15.38
2023-03-15T08:17:16.422Z,23.05
2023-03-15T08:19:44.877Z,7.70
2023-03-15T08:22:11.832Z,9.02
2023-03-15T08:24:38.799Z,11.57
2023-03-15T08:27:06.847Z,11.98
2023-03-15T08:29:34.035Z,13.77
2023-03-15T08:32:02.034Z,8.38
2023-03-15T08:34:28.924Z,10.70
2023-03-15T08:36:55.871Z,14.25
2023-03-15T08:39:24.576Z,10.43
2023-03-15T08:41:51.486Z,12.82
2023-03-15T08:44:18.375Z,10.35
2023-03-15T08:46:45.190Z,12.75
2023-03-15T08:49:12.142Z,10.77
2023-03-15T08:51:38.962Z,8.70
2023-03-15T08:54:06.168Z,11.45
2023-03-15T08:56:32.911Z,6.18
2023-03-15T08:59:00.309Z,7.47
2023-03-15T09:01:27.163Z,11.70
2023-03-15T09:03:54.419Z,13.32
2023-03-15T09:06:21.346Z,8.45
2023-03-15T09:08:48.179Z,13.30
2023-03-15T09:11:14.991Z,13.35
2023-03-15T09:13:41.832Z,13.68
2023-03-15T09:16:08.590Z,7.10
2023-03-15T09:18:35.404Z,9.15
2023-03-15T09:21:02.739Z,7.28
2023-03-15T09:23:29.996Z,11.98
2023-03-15T09:25:56.902Z,8.43
2023-03-15T09:28:25.513Z,8.25
2023-03-15T09:30:52.993Z,8.70
2023-03-15T09:33:22.998Z,8.50
2023-03-15T09:35:53.678Z,9.63
2023-03-15T09:38:22.154Z,10.25
2023-03-15T09:40:50.715Z,14.57
2023-03-15T09:43:39.714Z,6.53
2023-03-15T09:46:32.067Z,10.73
2023-03-15T09:49:10.081Z,11.13
2023-03-15T09:51:59.546Z,9.23
2023-03-15T09:54:41.614Z,11.48
2023-03-15T09:57:47.035Z,13.75
2023-03-15T10:00:20.864Z,8.32
2023-03-15T10:03:02.324Z,10.10
2023-03-15T10:05:43.342Z,9.98
2023-03-15T10:08:17.486Z,10.25
2023-03-15T10:11:04.806Z,8.98
2023-03-15T10:13:33.013Z,10.82
2023-03-15T10:16:39.052Z,8.23
2023-03-15T10:19:30.376Z,10.10
2023-03-15T10:22:12.140Z,10.20
2023-03-15T10:25:15.313Z,8.50
2023-03-15T10:27:51.247Z,9.65
2023-03-15T10:30:24.468Z,14.40
2023-03-15T10:33:34.306Z,8.23
2023-03-15T10:36:13.856Z,13.13
2023-03-15T10:38:41.838Z,8.57
2023-03-15T10:41:17.812Z,8.45
2023-03-15T10:44:02.247Z,11.85
2023-03-15T10:46:29.654Z,5.88
2023-03-15T10:49:00.794Z,8.60
2023-03-15T10:51:34.597Z,14.25
2023-03-15T10:54:24.226Z,10.18
2023-03-15T10:57:03.904Z,7.78
2023-03-15T10:59:35.306Z,10.10
2023-03-15T11:02:22.710Z,10.68
2023-03-15T11:05:09.792Z,14.27
2023-03-15T11:07:36.633Z,10.82
2023-03-15T11:10:06.860Z,5.97
2023-03-15T11:12:35.009Z,10.35
2023-03-15T11:15:13.929Z,5.95
2023-03-15T11:17:48.788Z,10.50
2023-03-15T11:20:42.029Z,10.30
2023-03-15T11:23:25.203Z,10.07
2023-03-15T11:25:53.408Z,8.02
2023-03-15T11:28:27.879Z,9.05
2023-03-15T11:30:57.722Z,11.32
2023-03-15T11:33:58.898Z,13.82
2023-03-15T11:36:32.296Z,8.85
2023-03-15T11:39:04.521Z,5.55
2023-03-15T11:41:57.433Z,6.97
2023-03-15T11:44:40.599Z,7.95
2023-03-15T11:47:31.540Z,8.15
2023-03-15T11:49:59.175Z,11.55
2023-03-15T11:52:29.063Z,7.75
2023-03-15T11:55:02.063Z,6.78
2023-03-15T11:57:28.795Z,4.38
2023-03-15T11:59:57.569Z,9.48
2023-03-15T12:02:26.171Z,9.55
2023-03-15T12:04:54.393Z,10.52
2023-03-15T12:07:23.892Z,3.08
2023-03-15T12:09:56.580Z,5.28
2023-03-15T12:12:26.299Z,7.85
2023-03-15T12:15:26.781Z,8.73
2023-03-15T12:18:06.360Z,4.25
2023-03-15T12:20:57.145Z,5.28
2023-03-15T12:23:40.412Z,8.15
2023-03-15T12:29:11.885Z,8.05
2023-03-15T12:31:52.739Z,6.85
2023-03-15T12:34:31.932Z,7.68
2023-03-15T12:37:08.154Z,10.43
2023-03-15T12:39:42.284Z,6.38
2023-03-15T12:42:31.541Z,5.75
2023-03-15T12:45:16.868Z,8.13
2023-03-15T12:47:58.142Z,9.85
2023-03-15T12:50:46.979Z,7.60
2023-03-15T12:53:25.569Z,8.68
2023-03-15T12:55:59.567Z,7.55
2023-03-15T12:58:36.868Z,7.97
2023-03-15T13:01:07.554Z,8.70
2023-03-15T13:03:36.320Z,11.07
2023-03-15T13:06:45.857Z,6.82
2023-03-15T13:09:31.099Z,10.35
2023-03-15T13:12:32.980Z,10.63
2023-03-15T13:15:10.277Z,8.25
2023-03-15T13:17:51.878Z,7.72
2023-03-15T13:20:33.556Z,13.30
2023-03-15T13:23:27.846Z,13.02
2023-03-15T13:26:15.070Z,9.68
2023-03-15T13:28:56.757Z,6.53
2023-03-15T13:31:30.710Z,9.63
2023-03-15T13:34:15.256Z,8.50
2023-03-15T13:36:46.465Z,9.45
2023-03-15T13:39:28.533Z,7.45
2023-03-15T13:42:04.980Z,9.20
2023-03-15T13:44:33.947Z,7.00
2023-03-15T13:47:01.113Z,12.32
2023-03-15T13:49:35.359Z,8.57
2023-03-15T13:52:12.481Z,8.95
2023-03-15T13:54:41.329Z,16.17
2023-03-15T13:57:12.921Z,8.43
2023-03-15T13:59:59.507Z,8.95
2023-03-15T14:02:38.776Z,8.13
2023-03-15T14:05:11.370Z,16.83
2023-03-15T14:07:49.984Z,9.45
2023-03-15T14:10:26.783Z,10.73
2023-03-15T14:12:55.273Z,9.45
2023-03-15T14:15:36.885Z,8.05
2023-03-15T14:18:17.105Z,10.02
2023-03-15T14:20:55.126Z,9.55
2023-03-15T14:23:27.993Z,9.02
2023-03-15T14:28:25.406Z,11.10
2023-03-15T14:30:57.336Z,7.82
2023-03-15T14:33:39.075Z,7.75
2023-03-15T14:36:46.116Z,11.68
2023-03-15T14:39:29.151Z,8.50
2023-03-15T14:41:56.656Z,7.72
2023-03-15T14:44:23.951Z,6.15
2023-03-15T14:46:51.337Z,12.00
2023-03-15T14:49:27.729Z,8.00
2023-03-15T14:52:01.773Z,13.77
2023-03-15T14:54:33.783Z,8.77
2023-03-15T14:57:00.992Z,16.45
2023-03-15T14:59:29.185Z,14.50
2023-03-15T15:01:59.479Z,20.08
2023-03-15T15:04:34.275Z,11.50
2023-03-15T15:07:03.264Z,9.18
2023-03-15T15:09:32.144Z,9.50
2023-03-15T15:11:59.826Z,8.20
2023-03-15T15:14:26.971Z,9.80
2023-03-15T15:16:53.966Z,4.50
2023-03-15T15:19:22.063Z,7.72
2023-03-15T15:21:49.271Z,8.70
2023-03-15T15:24:19.962Z,4.22
2023-03-15T15:26:47.520Z,5.80
2023-03-15T15:29:16.437Z,4.28
2023-03-15T15:31:44.784Z,5.43
2023-03-15T15:34:12.664Z,4.47
2023-03-15T15:36:44.356Z,5.25
2023-03-15T15:39:20.556Z,9.32
2023-03-15T15:41:47.920Z,8.32
2023-03-15T15:44:18.078Z,8.88
2023-03-15T15:46:45.028Z,7.15
2023-03-15T15:49:12.845Z,11.05
2023-03-15T15:51:49.499Z,6.15
2023-03-15T15:54:20.410Z,5.38
2023-03-15T15:56:55.390Z,5.28
2023-03-15T15:59:25.424Z,5.80
2023-03-15T16:02:00.652Z,4.32
2023-03-15T16:04:29.268Z,12.40
2023-03-15T16:07:00.257Z,15.35
2023-03-15T16:09:30.147Z,14.43
2023-03-15T16:11:58.411Z,14.93
2023-03-15T16:14:25.235Z,14.27
2023-03-15T16:16:52.107Z,14.18
2023-03-15T16:19:19.081Z,7.43
2023-03-15T16:21:50.048Z,6.10
2023-03-15T16:24:34.794Z,8.30
2023-03-15T16:27:06.502Z,8.90
2023-03-15T16:29:44.483Z,7.05
2023-03-15T16:32:32.934Z,7.57
2023-03-15T16:35:15.840Z,7.63
2023-03-15T16:37:44.111Z,8.55
2023-03-15T16:40:33.334Z,4.50
2023-03-15T16:43:01.243Z,9.85
2023-03-15T16:45:28.667Z,11.50
2023-03-15T16:47:56.584Z,7.07
2023-03-15T16:50:24.261Z,7.00
2023-03-15T16:52:55.042Z,4.75
2023-03-15T16:55:28.186Z,9.90
2023-03-15T16:57:55.724Z,6.03
2023-03-15T17:00:23.380Z,5.68
2023-03-15T17:02:52.221Z,9.63
2023-03-15T17:05:20.820Z,9.48
2023-03-15T17:07:52.532Z,8.18
2023-03-15T17:10:29.169Z,7.43
2023-03-15T17:12:58.280Z,6.53
2023-03-15T17:15:28.311Z,7.30
2023-03-15T17:17:58.934Z,8.57
2023-03-15T17:20:28.274Z,9.15
2023-03-15T17:23:00.479Z,6.45
2023-03-15T17:25:28.718Z,5.53
2023-03-15T17:27:55.620Z,6.05
2023-03-15T17:30:30.896Z,6.78
2023-03-15T17:32:57.966Z,46.92
2023-03-15T17:35:31.258Z,39.55
2023-03-15T17:37:58.370Z,16.80
2023-03-15T17:40:29.678Z,10.98
2023-03-15T17:42:59.430Z,9.48
2023-03-15T17:45:31.144Z,17.13
2023-03-15T17:47:58.284Z,9.48
2023-03-15T17:50:29.473Z,22.15
2023-03-15T17:53:02.424Z,53.03
2023-03-15T17:57:57.577Z,8.50
2023-03-15T18:00:25.169Z,3.55
2023-03-15T18:02:55.891Z,2.63
2023-03-15T18:05:26.657Z,1.38
2023-03-15T18:07:59.120Z,1.65
2023-03-15T18:12:57.355Z,1.27
2023-03-15T18:15:24.249Z,1.30
2023-03-15T18:17:51.123Z,1.33
2023-03-15T18:20:19.409Z,1.63
2023-03-15T18:22:46.333Z,2.40
2023-03-15T18:25:26.900Z,17.50
2023-03-15T18:27:54.488Z,8.73
2023-03-15T18:30:24.855Z,5.75
2023-03-15T18:32:53.533Z,7.03
2023-03-15T18:35:31.507Z,12.98
2023-03-15T18:37:59.337Z,12.45
2023-03-15T18:40:30.338Z,40.92
2023-03-15T18:42:58.629Z,45.15
2023-03-15T18:45:30.381Z,33.45
2023-03-15T18:47:59.840Z,36.33
2023-03-15T18:50:28.418Z,86.40
2023-03-15T18:52:55.272Z,70.50
2023-03-15T18:55:22.451Z,53.75
2023-03-15T18:57:51.988Z,54.00
2023-03-15T19:00:26.629Z,131.18
2023-03-15T19:02:56.152Z,54.63
2023-03-15T19:05:24.395Z,37.78
2023-03-15T19:07:51.343Z,18.52
2023-03-15T19:10:21.183Z,6.95
2023-03-15T19:12:48.961Z,7.05
2023-03-15T19:15:17.902Z,13.07
2023-03-15T19:17:47.345Z,11.48
2023-03-15T19:20:18.146Z,11.32
2023-03-15T19:22:45.182Z,10.93
2023-03-15T19:25:13.814Z,119.55
2023-03-15T19:27:42.718Z,143.32
2023-03-15T19:30:16.281Z,82.68
2023-03-15T19:32:48.071Z,50.90
2023-03-15T19:35:15.623Z,109.18
2023-03-15T19:37:44.268Z,38.80
2023-03-15T19:40:13.206Z,19.83
2023-03-15T19:42:40.185Z,13.10
2023-03-15T19:45:08.678Z,9.45
2023-03-15T19:47:35.487Z,8.30
2023-03-15T19:50:02.790Z,10.48
2023-03-15T19:52:29.645Z,11.25
2023-03-15T19:54:56.919Z,8.52
2023-03-15T19:57:23.757Z,5.78
2023-03-15T19:59:50.509Z,11.90
2023-03-15T20:02:17.323Z,14.63
2023-03-15T20:04:44.232Z,51.63
2023-03-15T20:07:12.276Z,43.55
2023-03-15T20:09:41.422Z,22.23
2023-03-15T20:12:12.750Z,58.92
2023-03-15T20:14:39.945Z,59.17
2023-03-15T20:17:07.337Z,55.35
2023-03-15T20:19:35.901Z,56.03
2023-03-15T20:22:03.379Z,34.35
2023-03-15T20:24:30.443Z,19.52
2023-03-15T20:26:57.281Z,75.85
2023-03-15T20:29:24.137Z,16.77
2023-03-15T20:31:53.193Z,9.40
2023-03-15T20:34:20.478Z,68.47
2023-03-15T20:36:47.298Z,43.45
2023-03-15T20:39:15.155Z,44.50
2023-03-15T20:41:41.973Z,29.52
2023-03-15T20:44:09.721Z,23.52
2023-03-15T20:46:37.129Z,29.17
2023-03-15T20:49:04.004Z,19.42
2023-03-15T20:51:30.822Z,15.30
2023-03-15T20:53:57.630Z,18.02
2023-03-15T20:56:25.315Z,15.85
2023-03-15T20:58:52.204Z,16.00
2023-03-15T21:01:19.313Z,18.63
2023-03-15T21:03:47.195Z,14.90
2023-03-15T21:06:14.522Z,13.77
2023-03-15T21:08:45.913Z,18.52
2023-03-15T21:11:13.296Z,13.38
2023-03-15T21:13:41.147Z,17.35
2023-03-15T21:16:08.336Z,19.70
2023-03-15T21:18:38.448Z,14.63
2023-03-15T21:21:08.088Z,14.95
2023-03-15T21:23:35.505Z,18.08
2023-03-15T21:26:06.629Z,13.90
2023-03-15T21:28:34.721Z,13.55
2023-03-15T21:31:01.676Z,15.93
2023-03-15T21:33:31.128Z,17.25
2023-03-15T21:36:02.676Z,16.77
2023-03-15T21:38:32.898Z,17.75
2023-03-15T21:41:01.390Z,17.33
2023-03-15T21:43:33.994Z,18.65
2023-03-15T21:46:07.530Z,14.07
2023-03-15T21:48:37.132Z,12.93
2023-03-15T21:51:05.930Z,10.88
2023-03-15T21:53:36.195Z,11.60
2023-03-15T21:56:04.027Z,8.95
2023-03-15T21:58:31.472Z,12.80
2023-03-15T22:00:59.400Z,8.25
2023-03-15T22:03:28.051Z,9.07
2023-03-15T22:05:54.843Z,8.95
2023-03-15T22:08:21.675Z,10.02
2023-03-15T22:10:54.118Z,8.27
2023-03-15T22:13:21.754Z,8.05
2023-03-15T22:15:48.791Z,8.18
2023-03-15T22:18:15.937Z,9.60
2023-03-15T22:20:42.817Z,11.32
2023-03-15T22:23:09.659Z,10.90
2023-03-15T22:25:40.026Z,11.23
2023-03-15T22:28:07.258Z,10.27
2023-03-15T22:30:34.276Z,13.70
2023-03-15T22:33:01.322Z,12.50
2023-03-15T22:35:28.355Z,14.90
2023-03-15T22:37:56.855Z,10.38
2023-03-15T22:40:26.639Z,10.48
2023-03-15T22:42:54.117Z,12.65
2023-03-15T22:45:21.797Z,9.90
2023-03-15T22:47:49.708Z,10.30
2023-03-15T22:50:16.841Z,13.32
2023-03-15T22:52:43.894Z,10.15
2023-03-15T22:55:11.834Z,15.00
2023-03-15T22:57:38.870Z,13.00
2023-03-15T23:00:13.856Z,13.95
2023-03-15T23:02:44.896Z,24.48
2023-03-15T23:05:14.730Z,18.60
2023-03-15T23:07:41.663Z,22.55
2023-03-15T23:10:10.552Z,21.33
2023-03-15T23:12:37.608Z,79.28
2023-03-15T23:15:08.369Z,49.80
2023-03-15T23:17:35.257Z,26.08
2023-03-15T23:20:02.432Z,37.72
2023-03-15T23:22:30.159Z,33.88
2023-03-15T23:24:58.217Z,86.72
2023-03-15T23:27:26.108Z,45.38
2023-03-15T23:29:55.371Z,54.38
2023-03-15T23:32:25.210Z,25.02
2023-03-15T23:34:53.910Z,74.85
2023-03-15T23:37:23.773Z,21.35
2023-03-15T23:39:53.469Z,77.28
2023-03-15T23:42:25.760Z,39.47
2023-03-15T23:44:54.601Z,15.00
2023-03-15T23:47:24.478Z,17.88
2023-03-15T23:49:58.580Z,52.72
2023-03-15T23:52:26.328Z,41.65
2023-03-15T23:54:54.266Z,24.05
2023-03-15T23:57:24.231Z,15.88
2023-03-15T23:59:51.058Z,12.20
